sensor_id;sensor_type;location;lat;lon;timestamp;P1;durP1;ratioP1;P2;durP2;ratioP2
11344;SDS011;5727;42.600;23.028;2023-09-12T00:00:05;10.10;;;4.77;;
11344;SDS011;5727;42.600;23.028;2023-09-12T00:02:32;11.10;;;5.07;;
11344;SDS011;5727;42.600;23.028;2023-09-12T00:04:59;8.70;;;4.00;;
11344;SDS011;5727;42.600;23.028;2023-09-12T00:07:26;7.70;;;4.03;;
11344;SDS011;5727;42.600;23.028;2023-09-12T00:09:53;7.40;;;4.03;;
11344;SDS011;5727;42.600;23.028;2023-09-12T00:12:21;7.03;;;4.70;;
11344;SDS011;5727;42.600;23.028;2023-09-12T00:14:51;9.07;;;4.07;;
11344;SDS011;5727;42.600;23.028;2023-09-12T00:17:18;10.63;;;4.60;;
11344;SDS011;5727;42.600;23.028;2023-09-12T00:19:45;11.30;;;4.00;;
11344;SDS011;5727;42.600;23.028;2023-09-12T00:22:11;5.90;;;4.27;;
11344;SDS011;5727;42.600;23.028;2023-09-12T00:24:38;5.90;;;4.63;;
11344;SDS011;5727;42.600;23.028;2023-09-12T00:27:05;6.23;;;4.30;;
11344;SDS011;5727;42.600;23.028;2023-09-12T00:29:32;8.93;;;4.77;;
11344;SDS011;5727;42.600;23.028;2023-09-12T00:32:00;6.73;;;4.33;;
11344;SDS011;5727;42.600;23.028;2023-09-12T00:34:27;6.70;;;4.20;;
11344;SDS011;5727;42.600;23.028;2023-09-12T00:36:54;7.23;;;4.73;;
11344;SDS011;5727;42.600;23.028;2023-09-12T00:39:20;6.20;;;3.90;;
11344;SDS011;5727;42.600;23.028;2023-09-12T00:41:47;7.60;;;4.47;;
11344;SDS011;5727;42.600;23.028;2023-09-12T00:44:14;6.67;;;4.63;;
11344;SDS011;5727;42.600;23.028;2023-09-12T00:46:41;9.13;;;4.50;;
11344;SDS011;5727;42.600;23.028;2023-09-12T00:49:11;6.87;;;4.87;;
11344;SDS011;5727;42.600;23.028;2023-09-12T00:51:40;7.17;;;4.50;;
11344;SDS011;5727;42.600;23.028;2023-09-12T00:54:08;6.57;;;5.10;;
11344;SDS011;5727;42.600;23.028;2023-09-12T00:56:35;7.67;;;4.60;;
11344;SDS011;5727;42.600;23.028;2023-09-12T00:59:03;9.97;;;5.13;;
11344;SDS011;5727;42.600;23.028;2023-09-12T01:01:31;8.10;;;5.03;;
11344;SDS011;5727;42.600;23.028;2023-09-12T01:03:58;9.27;;;5.00;;
11344;SDS011;5727;42.600;23.028;2023-09-12T01:06:29;11.60;;;5.10;;
11344;SDS011;5727;42.600;23.028;2023-09-12T01:08:59;10.73;;;5.10;;
11344;SDS011;5727;42.600;23.028;2023-09-12T01:11:26;6.47;;;4.77;;
11344;SDS011;5727;42.600;23.028;2023-09-12T01:13:54;6.53;;;4.67;;
11344;SDS011;5727;42.600;23.028;2023-09-12T01:16:21;11.03;;;5.30;;
11344;SDS011;5727;42.600;23.028;2023-09-12T01:18:48;9.53;;;5.97;;
11344;SDS011;5727;42.600;23.028;2023-09-12T01:21:31;8.57;;;5.57;;
11344;SDS011;5727;42.600;23.028;2023-09-12T01:24:23;6.13;;;5.00;;
11344;SDS011;5727;42.600;23.028;2023-09-12T01:27:24;10.30;;;5.10;;
11344;SDS011;5727;42.600;23.028;2023-09-12T01:29:55;14.23;;;5.27;;
11344;SDS011;5727;42.600;23.028;2023-09-12T01:32:27;5.77;;;4.47;;
11344;SDS011;5727;42.600;23.028;2023-09-12T01:34:55;12.03;;;4.97;;
11344;SDS011;5727;42.600;23.028;2023-09-12T01:37:22;9.57;;;5.20;;
11344;SDS011;5727;42.600;23.028;2023-09-12T01:39:48;10.93;;;5.17;;
11344;SDS011;5727;42.600;23.028;2023-09-12T01:42:17;10.57;;;4.57;;
11344;SDS011;5727;42.600;23.028;2023-09-12T01:44:49;8.80;;;4.70;;
11344;SDS011;5727;42.600;23.028;2023-09-12T01:47:19;8.00;;;4.67;;
11344;SDS011;5727;42.600;23.028;2023-09-12T01:49:49;7.03;;;4.47;;
11344;SDS011;5727;42.600;23.028;2023-09-12T01:52:18;11.53;;;4.43;;
11344;SDS011;5727;42.600;23.028;2023-09-12T01:54:45;7.73;;;4.17;;
11344;SDS011;5727;42.600;23.028;2023-09-12T01:57:14;8.73;;;4.17;;
11344;SDS011;5727;42.600;23.028;2023-09-12T01:59:41;9.63;;;5.33;;
11344;SDS011;5727;42.600;23.028;2023-09-12T02:02:09;8.57;;;5.43;;
11344;SDS011;5727;42.600;23.028;2023-09-12T02:04:36;9.43;;;4.70;;
11344;SDS011;5727;42.600;23.028;2023-09-12T02:07:03;11.17;;;4.50;;
11344;SDS011;5727;42.600;23.028;2023-09-12T02:09:30;11.53;;;4.80;;
11344;SDS011;5727;42.600;23.028;2023-09-12T02:11:57;9.87;;;4.33;;
11344;SDS011;5727;42.600;23.028;2023-09-12T02:14:23;9.57;;;5.07;;
11344;SDS011;5727;42.600;23.028;2023-09-12T02:16:50;11.07;;;4.70;;
11344;SDS011;5727;42.600;23.028;2023-09-12T02:19:18;7.50;;;4.67;;
11344;SDS011;5727;42.600;23.028;2023-09-12T02:21:45;13.13;;;4.83;;
11344;SDS011;5727;42.600;23.028;2023-09-12T02:24:12;8.30;;;5.10;;
11344;SDS011;5727;42.600;23.028;2023-09-12T02:26:38;8.40;;;4.97;;
11344;SDS011;5727;42.600;23.028;2023-09-12T02:29:05;9.13;;;4.90;;
11344;SDS011;5727;42.600;23.028;2023-09-12T02:31:32;14.13;;;6.03;;
11344;SDS011;5727;42.600;23.028;2023-09-12T02:33:59;10.73;;;5.03;;
11344;SDS011;5727;42.600;23.028;2023-09-12T02:36:27;10.60;;;4.90;;
11344;SDS011;5727;42.600;23.028;2023-09-12T02:38:54;9.47;;;5.73;;
11344;SDS011;5727;42.600;23.028;2023-09-12T02:41:21;12.37;;;5.30;;
11344;SDS011;5727;42.600;23.028;2023-09-12T02:43:48;8.83;;;4.90;;
11344;SDS011;5727;42.600;23.028;2023-09-12T02:46:15;8.90;;;5.37;;
11344;SDS011;5727;42.600;23.028;2023-09-12T02:48:42;10.67;;;5.17;;
11344;SDS011;5727;42.600;23.028;2023-09-12T02:51:08;9.50;;;5.27;;
11344;SDS011;5727;42.600;23.028;2023-09-12T02:53:36;9.33;;;5.50;;
11344;SDS011;5727;42.600;23.028;2023-09-12T02:56:03;9.13;;;4.97;;
11344;SDS011;5727;42.600;23.028;2023-09-12T02:58:30;8.77;;;5.43;;
11344;SDS011;5727;42.600;23.028;2023-09-12T03:00:57;12.00;;;5.97;;
11344;SDS011;5727;42.600;23.028;2023-09-12T03:03:23;7.93;;;5.97;;
11344;SDS011;5727;42.600;23.028;2023-09-12T03:05:56;12.60;;;5.13;;
11344;SDS011;5727;42.600;23.028;2023-09-12T03:08:24;7.10;;;5.20;;
11344;SDS011;5727;42.600;23.028;2023-09-12T03:10:54;9.83;;;5.37;;
11344;SDS011;5727;42.600;23.028;2023-09-12T03:13:22;8.03;;;5.13;;
11344;SDS011;5727;42.600;23.028;2023-09-12T03:15:49;11.10;;;5.17;;
11344;SDS011;5727;42.600;23.028;2023-09-12T03:18:16;8.57;;;5.20;;
11344;SDS011;5727;42.600;23.028;2023-09-12T03:20:43;11.43;;;4.93;;
11344;SDS011;5727;42.600;23.028;2023-09-12T03:23:10;16.00;;;5.60;;
11344;SDS011;5727;42.600;23.028;2023-09-12T03:25:36;15.23;;;5.73;;
11344;SDS011;5727;42.600;23.028;2023-09-12T03:28:05;15.27;;;5.43;;
11344;SDS011;5727;42.600;23.028;2023-09-12T03:30:34;12.43;;;5.07;;
11344;SDS011;5727;42.600;23.028;2023-09-12T03:33:01;10.90;;;5.23;;
11344;SDS011;5727;42.600;23.028;2023-09-12T03:35:28;9.63;;;5.40;;
11344;SDS011;5727;42.600;23.028;2023-09-12T03:37:56;13.17;;;5.33;;
11344;SDS011;5727;42.600;23.028;2023-09-12T03:40:22;9.60;;;5.00;;
11344;SDS011;5727;42.600;23.028;2023-09-12T03:42:49;9.60;;;5.17;;
11344;SDS011;5727;42.600;23.028;2023-09-12T03:45:17;9.67;;;5.50;;
11344;SDS011;5727;42.600;23.028;2023-09-12T03:47:44;7.70;;;5.70;;
11344;SDS011;5727;42.600;23.028;2023-09-12T03:50:12;14.67;;;5.67;;
11344;SDS011;5727;42.600;23.028;2023-09-12T03:52:39;8.23;;;5.80;;
11344;SDS011;5727;42.600;23.028;2023-09-12T03:55:06;12.17;;;6.37;;
11344;SDS011;5727;42.600;23.028;2023-09-12T03:57:33;11.23;;;6.50;;
11344;SDS011;5727;42.600;23.028;2023-09-12T04:00:00;7.60;;;6.73;;
11344;SDS011;5727;42.600;23.028;2023-09-12T04:02:30;10.43;;;5.80;;
11344;SDS011;5727;42.600;23.028;2023-09-12T04:04:57;13.70;;;5.90;;
11344;SDS011;5727;42.600;23.028;2023-09-12T04:07:24;12.40;;;5.63;;
11344;SDS011;5727;42.600;23.028;2023-09-12T04:09:51;11.30;;;5.77;;
11344;SDS011;5727;42.600;23.028;2023-09-12T04:12:18;10.10;;;5.50;;
11344;SDS011;5727;42.600;23.028;2023-09-12T04:14:44;10.87;;;5.70;;
11344;SDS011;5727;42.600;23.028;2023-09-12T04:17:11;12.97;;;6.00;;
11344;SDS011;5727;42.600;23.028;2023-09-12T04:19:39;11.60;;;5.90;;
11344;SDS011;5727;42.600;23.028;2023-09-12T04:22:06;11.20;;;6.17;;
11344;SDS011;5727;42.600;23.028;2023-09-12T04:24:32;13.57;;;6.40;;
11344;SDS011;5727;42.600;23.028;2023-09-12T04:26:59;14.97;;;6.67;;
11344;SDS011;5727;42.600;23.028;2023-09-12T04:29:26;12.87;;;6.63;;
11344;SDS011;5727;42.600;23.028;2023-09-12T04:31:53;15.30;;;5.67;;
11344;SDS011;5727;42.600;23.028;2023-09-12T04:34:24;14.53;;;6.83;;
11344;SDS011;5727;42.600;23.028;2023-09-12T04:36:52;16.90;;;6.83;;
11344;SDS011;5727;42.600;23.028;2023-09-12T04:39:20;13.77;;;6.30;;
11344;SDS011;5727;42.600;23.028;2023-09-12T04:41:46;11.00;;;5.90;;
11344;SDS011;5727;42.600;23.028;2023-09-12T04:44:13;12.30;;;6.90;;
11344;SDS011;5727;42.600;23.028;2023-09-12T04:46:40;8.60;;;6.10;;
11344;SDS011;5727;42.600;23.028;2023-09-12T04:49:07;11.13;;;6.17;;
11344;SDS011;5727;42.600;23.028;2023-09-12T04:51:34;13.27;;;6.70;;
11344;SDS011;5727;42.600;23.028;2023-09-12T04:54:02;13.40;;;7.27;;
11344;SDS011;5727;42.600;23.028;2023-09-12T04:56:30;16.83;;;6.80;;
11344;SDS011;5727;42.600;23.028;2023-09-12T04:58:56;13.50;;;7.33;;
11344;SDS011;5727;42.600;23.028;2023-09-12T05:01:23;11.77;;;6.83;;
11344;SDS011;5727;42.600;23.028;2023-09-12T05:03:51;14.37;;;6.40;;
11344;SDS011;5727;42.600;23.028;2023-09-12T05:06:18;13.63;;;6.07;;
11344;SDS011;5727;42.600;23.028;2023-09-12T05:08:44;16.43;;;6.67;;
11344;SDS011;5727;42.600;23.028;2023-09-12T05:11:12;9.70;;;6.47;;
11344;SDS011;5727;42.600;23.028;2023-09-12T05:13:40;14.33;;;6.87;;
11344;SDS011;5727;42.600;23.028;2023-09-12T05:16:07;13.23;;;6.77;;
11344;SDS011;5727;42.600;23.028;2023-09-12T05:18:34;12.90;;;6.77;;
11344;SDS011;5727;42.600;23.028;2023-09-12T05:21:00;10.53;;;7.60;;
11344;SDS011;5727;42.600;23.028;2023-09-12T05:23:27;15.93;;;7.13;;
11344;SDS011;5727;42.600;23.028;2023-09-12T05:25:54;14.33;;;7.47;;
11344;SDS011;5727;42.600;23.028;2023-09-12T05:28:22;15.23;;;7.67;;
11344;SDS011;5727;42.600;23.028;2023-09-12T05:30:49;11.13;;;7.03;;
11344;SDS011;5727;42.600;23.028;2023-09-12T05:33:16;12.43;;;8.13;;
11344;SDS011;5727;42.600;23.028;2023-09-12T05:35:43;14.87;;;7.43;;
11344;SDS011;5727;42.600;23.028;2023-09-12T05:38:10;9.43;;;6.90;;
11344;SDS011;5727;42.600;23.028;2023-09-12T05:40:37;12.03;;;6.73;;
11344;SDS011;5727;42.600;23.028;2023-09-12T05:43:04;11.20;;;6.10;;
11344;SDS011;5727;42.600;23.028;2023-09-12T05:45:32;8.73;;;6.30;;
11344;SDS011;5727;42.600;23.028;2023-09-12T05:47:59;12.40;;;6.87;;
11344;SDS011;5727;42.600;23.028;2023-09-12T05:50:25;11.73;;;6.60;;
11344;SDS011;5727;42.600;23.028;2023-09-12T05:52:52;9.57;;;6.53;;
11344;SDS011;5727;42.600;23.028;2023-09-12T05:55:19;10.33;;;6.47;;
11344;SDS011;5727;42.600;23.028;2023-09-12T05:57:46;11.47;;;7.93;;
11344;SDS011;5727;42.600;23.028;2023-09-12T06:00:17;10.70;;;7.37;;
11344;SDS011;5727;42.600;23.028;2023-09-12T06:02:45;9.03;;;6.33;;
11344;SDS011;5727;42.600;23.028;2023-09-12T06:05:13;13.03;;;7.03;;
11344;SDS011;5727;42.600;23.028;2023-09-12T06:07:39;7.40;;;5.07;;
11344;SDS011;5727;42.600;23.028;2023-09-12T06:10:07;8.97;;;5.43;;
11344;SDS011;5727;42.600;23.028;2023-09-12T06:12:34;9.63;;;6.27;;
11344;SDS011;5727;42.600;23.028;2023-09-12T06:15:01;8.57;;;5.50;;
11344;SDS011;5727;42.600;23.028;2023-09-12T06:17:29;9.30;;;5.40;;
11344;SDS011;5727;42.600;23.028;2023-09-12T06:19:57;9.17;;;5.37;;
11344;SDS011;5727;42.600;23.028;2023-09-12T06:22:24;8.80;;;5.77;;
11344;SDS011;5727;42.600;23.028;2023-09-12T06:24:51;11.23;;;6.20;;
11344;SDS011;5727;42.600;23.028;2023-09-12T06:27:18;9.43;;;5.60;;
11344;SDS011;5727;42.600;23.028;2023-09-12T06:29:45;11.57;;;5.20;;
11344;SDS011;5727;42.600;23.028;2023-09-12T06:32:13;10.80;;;6.43;;
11344;SDS011;5727;42.600;23.028;2023-09-12T06:34:40;10.23;;;5.17;;
11344;SDS011;5727;42.600;23.028;2023-09-12T06:37:08;7.90;;;4.73;;
11344;SDS011;5727;42.600;23.028;2023-09-12T06:39:35;8.20;;;4.87;;
11344;SDS011;5727;42.600;23.028;2023-09-12T06:42:02;6.83;;;4.07;;
11344;SDS011;5727;42.600;23.028;2023-09-12T06:44:29;9.47;;;5.00;;
11344;SDS011;5727;42.600;23.028;2023-09-12T06:46:56;7.53;;;4.93;;
11344;SDS011;5727;42.600;23.028;2023-09-12T06:49:23;6.23;;;4.13;;
11344;SDS011;5727;42.600;23.028;2023-09-12T06:51:50;7.27;;;4.53;;
11344;SDS011;5727;42.600;23.028;2023-09-12T06:54:18;8.73;;;4.03;;
11344;SDS011;5727;42.600;23.028;2023-09-12T06:56:45;5.63;;;3.70;;
11344;SDS011;5727;42.600;23.028;2023-09-12T06:59:11;6.53;;;3.90;;
11344;SDS011;5727;42.600;23.028;2023-09-12T07:01:38;5.07;;;3.83;;
11344;SDS011;5727;42.600;23.028;2023-09-12T07:04:05;7.17;;;3.67;;
11344;SDS011;5727;42.600;23.028;2023-09-12T07:06:32;9.00;;;3.93;;
11344;SDS011;5727;42.600;23.028;2023-09-12T07:08:59;8.63;;;4.20;;
11344;SDS011;5727;42.600;23.028;2023-09-12T07:11:27;6.70;;;3.87;;
11344;SDS011;5727;42.600;23.028;2023-09-12T07:13:53;6.13;;;4.00;;
11344;SDS011;5727;42.600;23.028;2023-09-12T07:16:20;7.70;;;3.80;;
11344;SDS011;5727;42.600;23.028;2023-09-12T07:18:47;11.00;;;3.77;;
11344;SDS011;5727;42.600;23.028;2023-09-12T07:21:15;6.50;;;3.67;;
11344;SDS011;5727;42.600;23.028;2023-09-12T07:23:42;4.83;;;3.90;;
11344;SDS011;5727;42.600;23.028;2023-09-12T07:26:11;5.30;;;3.40;;
11344;SDS011;5727;42.600;23.028;2023-09-12T07:28:40;7.37;;;4.17;;
11344;SDS011;5727;42.600;23.028;2023-09-12T07:31:07;7.70;;;3.20;;
11344;SDS011;5727;42.600;23.028;2023-09-12T07:33:34;6.37;;;3.53;;
11344;SDS011;5727;42.600;23.028;2023-09-12T07:36:01;6.10;;;3.30;;
11344;SDS011;5727;42.600;23.028;2023-09-12T07:38:28;5.07;;;4.17;;
11344;SDS011;5727;42.600;23.028;2023-09-12T07:40:56;7.40;;;3.13;;
11344;SDS011;5727;42.600;23.028;2023-09-12T07:43:23;6.53;;;3.13;;
11344;SDS011;5727;42.600;23.028;2023-09-12T07:45:55;5.90;;;3.57;;
11344;SDS011;5727;42.600;23.028;2023-09-12T07:48:22;5.93;;;3.63;;
11344;SDS011;5727;42.600;23.028;2023-09-12T07:50:49;8.47;;;3.60;;
11344;SDS011;5727;42.600;23.028;2023-09-12T07:53:16;5.97;;;3.37;;
11344;SDS011;5727;42.600;23.028;2023-09-12T07:55:43;7.20;;;3.77;;
11344;SDS011;5727;42.600;23.028;2023-09-12T07:58:11;6.27;;;3.03;;
11344;SDS011;5727;42.600;23.028;2023-09-12T08:00:39;8.53;;;3.43;;
11344;SDS011;5727;42.600;23.028;2023-09-12T08:03:08;6.93;;;3.40;;
11344;SDS011;5727;42.600;23.028;2023-09-12T08:05:35;5.33;;;3.00;;
11344;SDS011;5727;42.600;23.028;2023-09-12T08:08:02;5.43;;;2.87;;
11344;SDS011;5727;42.600;23.028;2023-09-12T08:10:29;7.00;;;3.00;;
11344;SDS011;5727;42.600;23.028;2023-09-12T08:12:56;8.33;;;3.10;;
11344;SDS011;5727;42.600;23.028;2023-09-12T08:15:22;8.60;;;3.40;;
11344;SDS011;5727;42.600;23.028;2023-09-12T08:17:49;13.47;;;3.10;;
11344;SDS011;5727;42.600;23.028;2023-09-12T08:20:19;8.70;;;2.80;;
11344;SDS011;5727;42.600;23.028;2023-09-12T08:22:46;6.77;;;2.97;;
11344;SDS011;5727;42.600;23.028;2023-09-12T08:25:13;6.70;;;3.10;;
11344;SDS011;5727;42.600;23.028;2023-09-12T08:27:40;7.57;;;2.77;;
11344;SDS011;5727;42.600;23.028;2023-09-12T08:30:09;10.03;;;3.13;;
11344;SDS011;5727;42.600;23.028;2023-09-12T08:32:37;7.13;;;2.90;;
11344;SDS011;5727;42.600;23.028;2023-09-12T08:35:08;5.70;;;2.53;;
11344;SDS011;5727;42.600;23.028;2023-09-12T08:37:37;8.77;;;2.30;;
11344;SDS011;5727;42.600;23.028;2023-09-12T08:40:05;7.00;;;2.30;;
11344;SDS011;5727;42.600;23.028;2023-09-12T08:42:35;2.50;;;1.77;;
11344;SDS011;5727;42.600;23.028;2023-09-12T08:45:06;4.87;;;1.93;;
11344;SDS011;5727;42.600;23.028;2023-09-12T08:47:36;5.13;;;2.07;;
11344;SDS011;5727;42.600;23.028;2023-09-12T08:50:05;5.37;;;2.07;;
11344;SDS011;5727;42.600;23.028;2023-09-12T08:52:33;4.33;;;1.80;;
11344;SDS011;5727;42.600;23.028;2023-09-12T08:55:02;6.80;;;2.33;;
11344;SDS011;5727;42.600;23.028;2023-09-12T08:57:29;6.23;;;2.27;;
11344;SDS011;5727;42.600;23.028;2023-09-12T08:59:59;5.63;;;2.00;;
11344;SDS011;5727;42.600;23.028;2023-09-12T09:02:31;7.13;;;2.03;;
11344;SDS011;5727;42.600;23.028;2023-09-12T09:04:58;6.53;;;1.83;;
11344;SDS011;5727;42.600;23.028;2023-09-12T09:07:30;4.30;;;2.47;;
11344;SDS011;5727;42.600;23.028;2023-09-12T09:09:59;6.93;;;2.00;;
11344;SDS011;5727;42.600;23.028;2023-09-12T09:12:29;3.73;;;1.87;;
11344;SDS011;5727;42.600;23.028;2023-09-12T09:14:56;4.97;;;2.30;;
11344;SDS011;5727;42.600;23.028;2023-09-12T09:17:23;4.23;;;1.97;;
11344;SDS011;5727;42.600;23.028;2023-09-12T09:19:50;3.77;;;1.70;;
11344;SDS011;5727;42.600;23.028;2023-09-12T09:22:17;6.33;;;1.90;;
11344;SDS011;5727;42.600;23.028;2023-09-12T09:24:43;4.97;;;1.60;;
11344;SDS011;5727;42.600;23.028;2023-09-12T09:27:10;4.17;;;1.87;;
11344;SDS011;5727;42.600;23.028;2023-09-12T09:29:47;5.20;;;2.00;;
11344;SDS011;5727;42.600;23.028;2023-09-12T09:32:18;5.13;;;1.53;;
11344;SDS011;5727;42.600;23.028;2023-09-12T09:34:47;3.73;;;1.77;;
11344;SDS011;5727;42.600;23.028;2023-09-12T09:37:14;2.50;;;1.50;;
11344;SDS011;5727;42.600;23.028;2023-09-12T09:39:44;6.03;;;1.67;;
11344;SDS011;5727;42.600;23.028;2023-09-12T09:42:12;3.50;;;1.87;;
11344;SDS011;5727;42.600;23.028;2023-09-12T09:44:39;2.83;;;1.80;;
11344;SDS011;5727;42.600;23.028;2023-09-12T09:47:08;6.03;;;1.80;;
11344;SDS011;5727;42.600;23.028;2023-09-12T09:49:34;4.20;;;1.77;;
11344;SDS011;5727;42.600;23.028;2023-09-12T09:52:03;3.63;;;1.80;;
11344;SDS011;5727;42.600;23.028;2023-09-12T09:54:30;5.90;;;2.17;;
11344;SDS011;5727;42.600;23.028;2023-09-12T09:56:57;5.23;;;2.00;;
11344;SDS011;5727;42.600;23.028;2023-09-12T09:59:25;5.70;;;2.13;;
11344;SDS011;5727;42.600;23.028;2023-09-12T10:01:54;4.73;;;2.27;;
11344;SDS011;5727;42.600;23.028;2023-09-12T10:04:24;3.73;;;1.97;;
11344;SDS011;5727;42.600;23.028;2023-09-12T10:06:55;5.00;;;1.57;;
11344;SDS011;5727;42.600;23.028;2023-09-12T10:09:25;4.90;;;1.63;;
11344;SDS011;5727;42.600;23.028;2023-09-12T10:11:52;5.57;;;2.00;;
11344;SDS011;5727;42.600;23.028;2023-09-12T10:14:22;5.30;;;2.07;;
11344;SDS011;5727;42.600;23.028;2023-09-12T10:16:51;3.47;;;1.70;;
11344;SDS011;5727;42.600;23.028;2023-09-12T10:19:29;8.17;;;2.27;;
11344;SDS011;5727;42.600;23.028;2023-09-12T10:22:03;9.07;;;2.23;;
11344;SDS011;5727;42.600;23.028;2023-09-12T10:24:36;8.07;;;2.13;;
11344;SDS011;5727;42.600;23.028;2023-09-12T10:27:05;5.90;;;1.97;;
11344;SDS011;5727;42.600;23.028;2023-09-12T10:29:32;4.60;;;1.57;;
11344;SDS011;5727;42.600;23.028;2023-09-12T10:32:01;4.47;;;1.80;;
11344;SDS011;5727;42.600;23.028;2023-09-12T10:34:32;6.00;;;1.80;;
11344;SDS011;5727;42.600;23.028;2023-09-12T10:37:00;4.47;;;1.50;;
11344;SDS011;5727;42.600;23.028;2023-09-12T10:39:29;3.50;;;1.80;;
11344;SDS011;5727;42.600;23.028;2023-09-12T10:41:58;3.43;;;1.73;;
11344;SDS011;5727;42.600;23.028;2023-09-12T10:44:25;2.87;;;1.27;;
11344;SDS011;5727;42.600;23.028;2023-09-12T10:46:52;4.17;;;1.77;;
11344;SDS011;5727;42.600;23.028;2023-09-12T10:49:20;7.77;;;2.17;;
11344;SDS011;5727;42.600;23.028;2023-09-12T10:51:49;4.53;;;1.57;;
11344;SDS011;5727;42.600;23.028;2023-09-12T10:54:16;3.83;;;1.80;;
11344;SDS011;5727;42.600;23.028;2023-09-12T10:57:01;4.67;;;1.43;;
11344;SDS011;5727;42.600;23.028;2023-09-12T10:59:29;5.10;;;1.70;;
11344;SDS011;5727;42.600;23.028;2023-09-12T11:02:00;4.30;;;1.60;;
11344;SDS011;5727;42.600;23.028;2023-09-12T11:04:56;4.70;;;1.60;;
11344;SDS011;5727;42.600;23.028;2023-09-12T11:07:31;6.77;;;1.50;;
11344;SDS011;5727;42.600;23.028;2023-09-12T11:10:16;6.03;;;1.30;;
11344;SDS011;5727;42.600;23.028;2023-09-12T11:12:46;1.90;;;1.10;;
11344;SDS011;5727;42.600;23.028;2023-09-12T11:15:14;7.37;;;2.20;;
11344;SDS011;5727;42.600;23.028;2023-09-12T11:17:42;4.93;;;1.63;;
11344;SDS011;5727;42.600;23.028;2023-09-12T11:20:09;4.50;;;1.80;;
11344;SDS011;5727;42.600;23.028;2023-09-12T11:22:39;6.33;;;1.77;;
11344;SDS011;5727;42.600;23.028;2023-09-12T11:25:16;4.10;;;2.10;;
11344;SDS011;5727;42.600;23.028;2023-09-12T11:27:44;5.37;;;1.63;;
11344;SDS011;5727;42.600;23.028;2023-09-12T11:30:12;10.73;;;2.13;;
11344;SDS011;5727;42.600;23.028;2023-09-12T11:32:40;3.37;;;1.60;;
11344;SDS011;5727;42.600;23.028;2023-09-12T11:35:10;7.17;;;2.27;;
11344;SDS011;5727;42.600;23.028;2023-09-12T11:37:39;5.43;;;1.70;;
11344;SDS011;5727;42.600;23.028;2023-09-12T11:40:15;4.47;;;1.40;;
11344;SDS011;5727;42.600;23.028;2023-09-12T11:42:43;3.83;;;1.47;;
11344;SDS011;5727;42.600;23.028;2023-09-12T11:45:11;4.17;;;1.50;;
11344;SDS011;5727;42.600;23.028;2023-09-12T11:47:39;3.60;;;1.30;;
11344;SDS011;5727;42.600;23.028;2023-09-12T11:50:07;4.50;;;1.60;;
11344;SDS011;5727;42.600;23.028;2023-09-12T11:52:36;4.30;;;1.20;;
11344;SDS011;5727;42.600;23.028;2023-09-12T11:55:05;5.90;;;1.53;;
11344;SDS011;5727;42.600;23.028;2023-09-12T11:57:32;4.67;;;1.23;;
11344;SDS011;5727;42.600;23.028;2023-09-12T12:00:02;6.03;;;1.70;;
11344;SDS011;5727;42.600;23.028;2023-09-12T12:02:33;4.35;;;1.20;;
11344;SDS011;5727;42.600;23.028;2023-09-12T12:05:00;4.28;;;1.55;;
11344;SDS011;5727;42.600;23.028;2023-09-12T12:07:29;3.65;;;1.10;;
11344;SDS011;5727;42.600;23.028;2023-09-12T12:09:56;4.72;;;1.23;;
11344;SDS011;5727;42.600;23.028;2023-09-12T12:12:24;3.72;;;1.23;;
11344;SDS011;5727;42.600;23.028;2023-09-12T12:14:51;6.15;;;1.55;;
11344;SDS011;5727;42.600;23.028;2023-09-12T12:17:17;6.57;;;1.05;;
11344;SDS011;5727;42.600;23.028;2023-09-12T12:19:45;3.45;;;1.00;;
11344;SDS011;5727;42.600;23.028;2023-09-12T12:22:12;4.05;;;0.90;;
11344;SDS011;5727;42.600;23.028;2023-09-12T12:24:39;4.80;;;1.40;;
11344;SDS011;5727;42.600;23.028;2023-09-12T12:27:07;3.78;;;0.88;;
11344;SDS011;5727;42.600;23.028;2023-09-12T12:29:37;3.55;;;0.73;;
11344;SDS011;5727;42.600;23.028;2023-09-12T12:32:05;7.80;;;1.20;;
11344;SDS011;5727;42.600;23.028;2023-09-12T12:34:34;5.82;;;1.33;;
11344;SDS011;5727;42.600;23.028;2023-09-12T12:37:02;6.85;;;1.15;;
11344;SDS011;5727;42.600;23.028;2023-09-12T12:39:29;5.68;;;1.05;;
11344;SDS011;5727;42.600;23.028;2023-09-12T12:41:56;4.72;;;1.40;;
11344;SDS011;5727;42.600;23.028;2023-09-12T12:44:22;4.43;;;1.15;;
11344;SDS011;5727;42.600;23.028;2023-09-12T12:47:03;3.65;;;1.13;;
11344;SDS011;5727;42.600;23.028;2023-09-12T12:49:35;5.25;;;1.00;;
11344;SDS011;5727;42.600;23.028;2023-09-12T12:52:03;5.78;;;1.25;;
11344;SDS011;5727;42.600;23.028;2023-09-12T12:54:31;3.53;;;0.90;;
11344;SDS011;5727;42.600;23.028;2023-09-12T12:56:58;5.90;;;1.33;;
11344;SDS011;5727;42.600;23.028;2023-09-12T12:59:24;7.13;;;1.55;;
11344;SDS011;5727;42.600;23.028;2023-09-12T13:01:51;3.63;;;0.88;;
11344;SDS011;5727;42.600;23.028;2023-09-12T13:04:19;5.88;;;1.08;;
11344;SDS011;5727;42.600;23.028;2023-09-12T13:06:47;5.95;;;1.33;;
11344;SDS011;5727;42.600;23.028;2023-09-12T13:09:13;4.05;;;1.20;;
11344;SDS011;5727;42.600;23.028;2023-09-12T13:11:42;3.55;;;0.88;;
11344;SDS011;5727;42.600;23.028;2023-09-12T13:14:08;9.52;;;1.02;;
11344;SDS011;5727;42.600;23.028;2023-09-12T13:16:36;5.53;;;1.17;;
11344;SDS011;5727;42.600;23.028;2023-09-12T13:19:04;5.72;;;1.13;;
11344;SDS011;5727;42.600;23.028;2023-09-12T13:21:32;6.40;;;1.10;;
11344;SDS011;5727;42.600;23.028;2023-09-12T13:23:59;5.15;;;0.93;;
11344;SDS011;5727;42.600;23.028;2023-09-12T13:26:25;5.07;;;0.93;;
11344;SDS011;5727;42.600;23.028;2023-09-12T13:28:52;6.35;;;1.25;;
11344;SDS011;5727;42.600;23.028;2023-09-12T13:31:19;6.85;;;1.33;;
11344;SDS011;5727;42.600;23.028;2023-09-12T13:33:45;4.25;;;0.77;;
11344;SDS011;5727;42.600;23.028;2023-09-12T13:36:12;3.70;;;0.90;;
11344;SDS011;5727;42.600;23.028;2023-09-12T13:38:40;3.92;;;0.80;;
11344;SDS011;5727;42.600;23.028;2023-09-12T13:41:07;2.80;;;0.70;;
11344;SDS011;5727;42.600;23.028;2023-09-12T13:43:34;3.72;;;0.93;;
11344;SDS011;5727;42.600;23.028;2023-09-12T13:46:01;4.70;;;1.13;;
11344;SDS011;5727;42.600;23.028;2023-09-12T13:48:37;1.60;;;0.80;;
11344;SDS011;5727;42.600;23.028;2023-09-12T13:51:14;2.80;;;0.95;;
11344;SDS011;5727;42.600;23.028;2023-09-12T13:53:42;3.80;;;0.80;;
11344;SDS011;5727;42.600;23.028;2023-09-12T13:56:08;2.95;;;0.82;;
11344;SDS011;5727;42.600;23.028;2023-09-12T13:58:35;3.83;;;1.10;;
11344;SDS011;5727;42.600;23.028;2023-09-12T14:01:02;6.80;;;1.38;;
11344;SDS011;5727;42.600;23.028;2023-09-12T14:03:29;2.95;;;0.85;;
11344;SDS011;5727;42.600;23.028;2023-09-12T14:05:56;4.95;;;1.15;;
11344;SDS011;5727;42.600;23.028;2023-09-12T14:08:22;8.02;;;1.60;;
11344;SDS011;5727;42.600;23.028;2023-09-12T14:10:51;4.45;;;1.27;;
11344;SDS011;5727;42.600;23.028;2023-09-12T14:13:18;3.08;;;1.10;;
11344;SDS011;5727;42.600;23.028;2023-09-12T14:15:44;8.50;;;1.33;;
11344;SDS011;5727;42.600;23.028;2023-09-12T14:18:12;5.30;;;1.33;;
11344;SDS011;5727;42.600;23.028;2023-09-12T14:20:39;4.72;;;1.10;;
11344;SDS011;5727;42.600;23.028;2023-09-12T14:23:06;7.05;;;1.42;;
11344;SDS011;5727;42.600;23.028;2023-09-12T14:25:32;3.70;;;1.10;;
11344;SDS011;5727;42.600;23.028;2023-09-12T14:28:00;3.67;;;1.13;;
11344;SDS011;5727;42.600;23.028;2023-09-12T14:30:29;4.82;;;1.20;;
11344;SDS011;5727;42.600;23.028;2023-09-12T14:33:00;2.97;;;0.88;;
11344;SDS011;5727;42.600;23.028;2023-09-12T14:35:27;5.43;;;1.30;;
11344;SDS011;5727;42.600;23.028;2023-09-12T14:37:54;3.45;;;0.98;;
11344;SDS011;5727;42.600;23.028;2023-09-12T14:40:21;6.72;;;1.70;;
11344;SDS011;5727;42.600;23.028;2023-09-12T14:42:49;5.45;;;1.45;;
11344;SDS011;5727;42.600;23.028;2023-09-12T14:45:17;4.95;;;1.20;;
11344;SDS011;5727;42.600;23.028;2023-09-12T14:47:44;5.25;;;0.90;;
11344;SDS011;5727;42.600;23.028;2023-09-12T14:50:11;5.65;;;1.20;;